createdAt,value
2023-04-11T00:00:35.090Z,12.88
2023-04-11T00:03:02.941Z,12.65
2023-04-11T00:05:34.336Z,13.23
2023-04-11T00:08:02.039Z,15.77
2023-04-11T00:10:29.397Z,14.30
2023-04-11T00:12:57.752Z,17.05
2023-04-11T00:15:25.380Z,15.48
2023-04-11T00:17:54.272Z,17.77
2023-04-11T00:20:22.068Z,17.55
2023-04-11T00:22:49.845Z,15.20
2023-04-11T00:25:17.926Z,19.40
2023-04-11T00:27:45.685Z,18.00
2023-04-11T00:30:14.877Z,19.80
2023-04-11T00:32:42.283Z,19.55
2023-04-11T00:35:09.829Z,14.55
2023-04-11T00:37:37.403Z,18.80
2023-04-11T00:40:06.935Z,16.50
2023-04-11T00:42:34.517Z,20.92
2023-04-11T00:45:01.844Z,15.70
2023-04-11T00:47:29.768Z,19.95
2023-04-11T00:49:56.896Z,22.02
2023-04-11T00:52:24.739Z,21.27
2023-04-11T00:54:52.298Z,21.55
2023-04-11T00:57:20.033Z,20.90
2023-04-11T00:59:51.425Z,23.45
2023-04-11T01:02:19.654Z,20.92
2023-04-11T01:04:47.100Z,23.10
2023-04-11T01:07:15.615Z,17.25
2023-04-11T01:09:43.256Z,18.27
2023-04-11T01:12:12.018Z,24.08
2023-04-11T01:14:40.096Z,19.85
2023-04-11T01:17:08.417Z,25.05
2023-04-11T01:19:35.600Z,24.55
2023-04-11T01:22:03.548Z,18.38
2023-04-11T01:24:31.750Z,21.90
2023-04-11T01:26:59.384Z,20.85
2023-04-11T01:29:26.515Z,17.05
2023-04-11T01:31:53.639Z,17.15
2023-04-11T01:34:23.302Z,27.50
2023-04-11T01:36:50.574Z,23.15
2023-04-11T01:39:17.734Z,22.17
2023-04-11T01:41:46.445Z,29.10
2023-04-11T01:44:13.948Z,26.50
2023-04-11T01:46:41.737Z,23.98
2023-04-11T01:49:08.958Z,21.42
2023-04-11T01:51:36.618Z,23.17
2023-04-11T01:54:03.862Z,22.08
2023-04-11T01:56:31.809Z,20.13
2023-04-11T01:58:59.451Z,20.05
2023-04-11T02:01:27.032Z,23.52
2023-04-11T02:03:54.475Z,24.10
2023-04-11T02:06:21.712Z,28.17
2023-04-11T02:08:48.845Z,26.98
2023-04-11T02:11:15.990Z,23.35
2023-04-11T02:13:45.156Z,27.63
2023-04-11T02:16:18.492Z,20.85
2023-04-11T02:18:46.567Z,24.83
2023-04-11T02:21:13.834Z,23.98
2023-04-11T02:23:41.140Z,28.30
2023-04-11T02:26:08.284Z,26.30
2023-04-11T02:28:36.966Z,25.42
2023-04-11T02:31:04.459Z,25.63
2023-04-11T02:33:32.663Z,26.60
2023-04-11T02:35:59.831Z,28.52
2023-04-11T02:38:27.931Z,23.50
2023-04-11T02:40:55.025Z,23.25
2023-04-11T02:43:22.246Z,25.55
2023-04-11T02:45:49.828Z,26.48
2023-04-11T02:48:18.285Z,22.30
2023-04-11T02:50:46.426Z,33.72
2023-04-11T02:53:13.642Z,25.23
2023-04-11T02:55:47.078Z,33.22
2023-04-11T02:58:18.256Z,25.30
2023-04-11T03:00:49.795Z,28.80
2023-04-11T03:03:17.362Z,31.50
2023-04-11T03:05:47.480Z,30.50
2023-04-11T03:08:18.583Z,30.42
2023-04-11T03:10:51.476Z,23.30
2023-04-11T03:13:19.708Z,31.75
2023-04-11T03:15:46.809Z,24.55
2023-04-11T03:18:14.808Z,29.35
2023-04-11T03:20:45.161Z,29.35
2023-04-11T03:23:14.592Z,26.02
2023-04-11T03:25:41.918Z,26.88
2023-04-11T03:28:09.156Z,25.65
2023-04-11T03:30:37.777Z,21.98
2023-04-11T03:33:04.941Z,24.52
2023-04-11T03:35:32.223Z,25.85
2023-04-11T03:38:01.290Z,25.80
2023-04-11T03:40:28.686Z,21.40
2023-04-11T03:43:05.422Z,24.80
2023-04-11T03:45:35.354Z,25.58
2023-04-11T03:48:05.856Z,34.67
2023-04-11T03:50:46.392Z,27.48
2023-04-11T03:53:15.647Z,27.90
2023-04-11T03:55:45.315Z,25.40
2023-04-11T03:58:16.443Z,24.90
2023-04-11T04:00:43.907Z,26.05
2023-04-11T04:03:11.239Z,30.75
2023-04-11T04:05:41.607Z,22.77
2023-04-11T04:08:09.736Z,21.80
2023-04-11T04:10:47.346Z,23.63
2023-04-11T04:13:15.166Z,25.33
2023-04-11T04:15:51.809Z,26.92
2023-04-11T04:18:23.690Z,26.25
2023-04-11T04:20:51.439Z,32.88
2023-04-11T04:23:20.052Z,26.25
2023-04-11T04:26:04.533Z,35.85
2023-04-11T04:28:33.461Z,23.25
2023-04-11T04:31:04.323Z,27.35
2023-04-11T04:33:38.512Z,31.40
2023-04-11T04:36:12.637Z,22.55
2023-04-11T04:38:42.401Z,23.83
2023-04-11T04:41:22.362Z,28.27
2023-04-11T04:43:58.552Z,21.83
2023-04-11T04:46:37.520Z,29.27
2023-04-11T04:49:07.229Z,22.80
2023-04-11T04:51:36.980Z,29.95
2023-04-11T04:54:05.251Z,32.90
2023-04-11T04:56:32.775Z,20.33
2023-04-11T04:59:00.226Z,29.10
2023-04-11T05:01:29.571Z,36.47
2023-04-11T05:04:00.208Z,31.88
2023-04-11T05:06:47.308Z,28.60
2023-04-11T05:09:16.527Z,22.70
2023-04-11T05:11:44.359Z,28.17
2023-04-11T05:14:11.544Z,23.13
2023-04-11T05:16:44.035Z,29.10
2023-04-11T05:19:11.333Z,22.35
2023-04-11T05:21:42.395Z,26.55
2023-04-11T05:24:09.576Z,28.40
2023-04-11T05:26:37.606Z,26.65
2023-04-11T05:29:06.846Z,26.27
2023-04-11T05:31:34.251Z,24.70
2023-04-11T05:34:02.453Z,23.25
2023-04-11T05:36:29.856Z,24.75
2023-04-11T05:38:56.927Z,25.73
2023-04-11T05:41:24.775Z,25.67
2023-04-11T05:43:52.024Z,27.00
2023-04-11T05:46:19.869Z,25.13
2023-04-11T05:48:47.576Z,25.08
2023-04-11T05:51:14.630Z,24.85
2023-04-11T05:53:41.757Z,23.38
2023-04-11T05:56:09.215Z,28.23
2023-04-11T05:58:39.846Z,27.55
2023-04-11T06:01:07.678Z,24.73
2023-04-11T06:03:34.990Z,27.90
2023-04-11T06:06:02.252Z,25.05
2023-04-11T06:08:29.479Z,24.65
2023-04-11T06:10:56.580Z,25.70
2023-04-11T06:13:23.730Z,22.67
2023-04-11T06:15:51.034Z,28.55
2023-04-11T06:18:18.156Z,23.05
2023-04-11T06:20:46.608Z,27.13
2023-04-11T06:23:13.977Z,27.85
2023-04-11T06:25:41.554Z,25.92
2023-04-11T06:28:08.590Z,29.13
2023-04-11T06:30:36.772Z,26.00
2023-04-11T06:33:03.942Z,27.88
2023-04-11T06:35:31.631Z,26.77
2023-04-11T06:37:58.874Z,31.08
2023-04-11T06:40:26.257Z,24.55
2023-04-11T06:42:53.286Z,28.15
2023-04-11T06:45:20.611Z,25.23
2023-04-11T06:47:47.811Z,29.80
2023-04-11T06:50:15.206Z,34.90
2023-04-11T06:52:42.327Z,41.63
2023-04-11T06:55:10.423Z,33.45
2023-04-11T06:57:37.534Z,30.58
2023-04-11T07:00:07.817Z,28.48
2023-04-11T07:02:39.718Z,36.97
2023-04-11T07:05:09.529Z,31.85
2023-04-11T07:07:36.993Z,31.42
2023-04-11T07:10:05.434Z,39.28
2023-04-11T07:12:32.508Z,31.88
2023-04-11T07:14:59.701Z,33.72
2023-04-11T07:17:26.837Z,28.73
2023-04-11T07:19:54.001Z,37.50
2023-04-11T07:22:21.161Z,27.33
2023-04-11T07:24:52.353Z,25.55
2023-04-11T07:27:19.801Z,32.22
2023-04-11T07:29:46.981Z,29.33
2023-04-11T07:32:14.072Z,25.02
2023-04-11T07:34:41.187Z,24.35
2023-04-11T07:37:08.481Z,26.27
2023-04-11T07:39:35.677Z,35.40
2023-04-11T07:42:02.961Z,30.55
2023-04-11T07:44:30.102Z,28.05
2023-04-11T07:46:57.305Z,31.80
2023-04-11T07:49:24.441Z,26.67
2023-04-11T07:51:51.536Z,32.15
2023-04-11T07:54:18.631Z,37.10
2023-04-11T07:56:45.835Z,28.17
2023-04-11T07:59:16.227Z,28.23
2023-04-11T08:01:43.691Z,28.08
2023-04-11T08:04:11.700Z,23.27
2023-04-11T08:06:38.992Z,22.55
2023-04-11T08:09:06.221Z,26.15
2023-04-11T08:11:33.410Z,28.10
2023-04-11T08:14:00.728Z,20.77
2023-04-11T08:16:27.971Z,23.52
2023-04-11T08:18:55.089Z,22.90
2023-04-11T08:21:23.948Z,21.73
2023-04-11T08:23:51.570Z,20.23
2023-04-11T08:26:19.136Z,24.98
2023-04-11T08:28:46.261Z,18.85
2023-04-11T08:31:13.698Z,14.50
2023-04-11T08:33:41.069Z,18.92
2023-04-11T08:36:10.678Z,14.73
2023-04-11T08:38:38.709Z,17.83
2023-04-11T08:41:06.429Z,22.02
2023-04-11T08:43:38.059Z,18.40
2023-04-11T08:46:05.408Z,18.45
2023-04-11T08:48:33.210Z,13.32
2023-04-11T08:51:00.448Z,15.40
2023-04-11T08:53:28.406Z,14.00
2023-04-11T08:55:55.587Z,16.98
2023-04-11T08:58:23.452Z,15.73
2023-04-11T09:00:50.789Z,12.65
2023-04-11T09:03:18.143Z,11.90
2023-04-11T09:05:46.851Z,16.17
2023-04-11T09:08:15.441Z,15.35
2023-04-11T09:10:45.867Z,13.45
2023-04-11T09:13:23.622Z,11.57
2023-04-11T09:16:06.484Z,21.88
2023-04-11T09:18:42.891Z,12.45
2023-04-11T09:21:15.121Z,12.67
2023-04-11T09:23:42.824Z,14.70
2023-04-11T09:26:11.541Z,11.20
2023-04-11T09:28:52.794Z,14.13
2023-04-11T09:31:38.532Z,16.95
2023-04-11T09:34:05.714Z,11.43
2023-04-11T09:36:32.981Z,12.68
2023-04-11T09:39:00.148Z,10.75
2023-04-11T09:41:32.537Z,16.75
2023-04-11T09:44:00.845Z,13.85
2023-04-11T09:46:28.085Z,6.18
2023-04-11T09:48:56.510Z,12.07
2023-04-11T09:51:35.792Z,12.02
2023-04-11T09:54:05.437Z,12.35
2023-04-11T09:56:35.029Z,13.07
2023-04-11T09:59:04.106Z,11.77
2023-04-11T10:01:31.535Z,9.35
2023-04-11T10:03:58.961Z,10.02
2023-04-11T10:06:41.240Z,11.25
2023-04-11T10:09:11.636Z,11.25
2023-04-11T10:11:45.026Z,8.32
2023-04-11T10:14:39.932Z,10.73
2023-04-11T10:17:23.672Z,12.02
2023-04-11T10:19:57.606Z,11.95
2023-04-11T10:22:46.792Z,11.77
2023-04-11T10:25:22.147Z,12.80
2023-04-11T10:27:53.408Z,8.40
2023-04-11T10:30:39.483Z,9.38
2023-04-11T10:33:17.834Z,11.80
2023-04-11T10:36:06.236Z,11.43
2023-04-11T10:38:48.928Z,13.98
2023-04-11T10:41:33.855Z,9.57
2023-04-11T10:44:19.878Z,12.25
2023-04-11T10:46:54.452Z,13.95
2023-04-11T10:49:40.746Z,10.70
2023-04-11T10:52:24.191Z,12.73
2023-04-11T10:54:53.462Z,12.55
2023-04-11T10:57:21.908Z,12.27
2023-04-11T10:59:51.731Z,10.98
2023-04-11T11:02:20.323Z,14.52
2023-04-11T11:04:49.319Z,8.98
2023-04-11T11:07:17.748Z,10.65
2023-04-11T11:09:51.578Z,12.82
2023-04-11T11:12:18.851Z,21.02
2023-04-11T11:14:47.234Z,12.25
2023-04-11T11:17:16.093Z,15.52
2023-04-11T11:19:47.644Z,16.02
2023-04-11T11:22:29.257Z,18.52
2023-04-11T11:25:07.923Z,16.70
2023-04-11T11:27:35.829Z,12.32
2023-04-11T11:30:12.389Z,14.35
2023-04-11T11:32:40.914Z,9.50
2023-04-11T11:35:13.981Z,14.05
2023-04-11T11:37:42.232Z,14.85
2023-04-11T11:40:13.502Z,18.65
2023-04-11T11:42:41.517Z,14.57
2023-04-11T11:45:34.968Z,22.85
2023-04-11T11:48:04.026Z,14.65
2023-04-11T11:50:32.856Z,16.50
2023-04-11T11:53:15.903Z,18.80
2023-04-11T11:55:43.774Z,13.55
2023-04-11T11:58:10.866Z,18.73
2023-04-11T12:00:42.077Z,16.48
2023-04-11T12:03:12.973Z,13.75
2023-04-11T12:05:43.676Z,14.90
2023-04-11T12:08:11.299Z,13.95
2023-04-11T12:10:41.004Z,16.02
2023-04-11T12:13:21.248Z,18.83
2023-04-11T12:15:54.316Z,12.57
2023-04-11T12:18:26.568Z,15.90
2023-04-11T12:20:54.575Z,12.35
2023-04-11T12:23:22.561Z,18.50
2023-04-11T12:25:50.320Z,15.07
2023-04-11T12:28:17.509Z,14.15
2023-04-11T12:30:45.063Z,18.60
2023-04-11T12:33:12.219Z,13.13
2023-04-11T12:35:39.770Z,22.98
2023-04-11T12:38:08.397Z,12.52
2023-04-11T12:40:36.207Z,13.18
2023-04-11T12:43:03.324Z,11.30
2023-04-11T12:45:31.067Z,13.05
2023-04-11T12:47:58.200Z,15.68
2023-04-11T12:50:26.451Z,12.52
2023-04-11T12:52:55.168Z,14.50
2023-04-11T12:55:23.845Z,14.57
2023-04-11T12:57:51.061Z,12.68
2023-04-11T13:00:19.507Z,22.23
2023-04-11T13:02:47.112Z,11.50
2023-04-11T13:05:15.804Z,9.32
2023-04-11T13:07:45.642Z,10.13
2023-04-11T13:10:14.585Z,10.30
2023-04-11T13:12:45.439Z,8.95
2023-04-11T13:15:15.545Z,11.93
2023-04-11T13:17:43.265Z,9.35
2023-04-11T13:20:11.919Z,10.68
2023-04-11T13:22:42.982Z,19.23
2023-04-11T13:25:11.318Z,10.60
2023-04-11T13:27:39.930Z,14.30
2023-04-11T13:30:10.880Z,13.30
2023-04-11T13:32:38.141Z,17.00
2023-04-11T13:35:06.194Z,12.15
2023-04-11T13:37:33.434Z,14.07
2023-04-11T13:40:00.878Z,14.13
2023-04-11T13:42:28.145Z,10.85
2023-04-11T13:44:55.243Z,11.70
2023-04-11T13:47:22.424Z,13.00
2023-04-11T13:49:49.456Z,11.38
2023-04-11T13:52:16.730Z,12.85
2023-04-11T13:54:43.805Z,15.65
2023-04-11T13:57:11.011Z,12.95
2023-04-11T13:59:38.117Z,16.80
2023-04-11T14:02:05.242Z,12.98
2023-04-11T14:04:32.582Z,9.27
2023-04-11T14:06:59.767Z,11.45
2023-04-11T14:09:26.976Z,13.27
2023-04-11T14:11:54.085Z,10.57
2023-04-11T14:14:21.196Z,12.82
2023-04-11T14:16:48.646Z,10.80
2023-04-11T14:19:16.065Z,11.32
2023-04-11T14:21:43.315Z,11.40
2023-04-11T14:24:10.573Z,10.80
2023-04-11T14:26:37.655Z,13.30
2023-04-11T14:29:05.066Z,11.70
2023-04-11T14:31:32.396Z,12.55
2023-04-11T14:33:59.699Z,11.30
2023-04-11T14:36:28.216Z,11.38
2023-04-11T14:38:55.706Z,9.77
2023-04-11T14:41:23.606Z,14.60
2023-04-11T14:43:50.874Z,12.88
2023-04-11T14:46:18.230Z,15.80
2023-04-11T14:48:45.745Z,13.57
2023-04-11T14:51:12.951Z,14.25
2023-04-11T14:53:40.005Z,12.52
2023-04-11T14:56:07.589Z,10.38
2023-04-11T14:58:34.751Z,13.95
2023-04-11T15:01:02.452Z,11.57
2023-04-11T15:03:29.951Z,10.38
2023-04-11T15:05:57.152Z,12.70
2023-04-11T15:08:24.326Z,14.07
2023-04-11T15:10:54.697Z,14.25
2023-04-11T15:13:22.937Z,13.35
2023-04-11T15:15:50.287Z,11.20
2023-04-11T15:18:28.252Z,16.77
2023-04-11T15:20:57.004Z,17.80
2023-04-11T15:23:24.415Z,12.90
2023-04-11T15:26:03.104Z,11.93
2023-04-11T15:28:36.182Z,15.50
2023-04-11T15:31:04.984Z,15.70
2023-04-11T15:33:32.332Z,10.77
2023-04-11T15:36:00.805Z,19.05
2023-04-11T15:38:28.873Z,12.93
2023-04-11T15:40:57.428Z,10.15
2023-04-11T15:43:24.866Z,10.95
2023-04-11T15:45:53.916Z,12.18
2023-04-11T15:48:21.261Z,13.75
2023-04-11T15:50:48.466Z,14.10
2023-04-11T15:53:15.649Z,12.93
2023-04-11T15:55:44.043Z,16.00
2023-04-11T15:58:11.416Z,11.10
2023-04-11T16:00:39.814Z,11.40
2023-04-11T16:03:08.862Z,13.63
2023-04-11T16:05:40.567Z,13.45
2023-04-11T16:08:08.224Z,17.73
2023-04-11T16:10:35.813Z,14.00
2023-04-11T16:13:03.306Z,16.20
2023-04-11T16:15:30.776Z,15.68
2023-04-11T16:17:58.188Z,10.73
2023-04-11T16:20:25.543Z,10.73
2023-04-11T16:22:52.799Z,11.10
2023-04-11T16:25:21.643Z,11.75
2023-04-11T16:27:49.117Z,13.00
2023-04-11T16:30:16.878Z,12.45
2023-04-11T16:32:44.556Z,15.27
2023-04-11T16:35:12.182Z,11.50
2023-04-11T16:37:39.265Z,14.27
2023-04-11T16:40:11.661Z,16.48
2023-04-11T16:42:39.812Z,14.88
2023-04-11T16:45:08.164Z,17.50
2023-04-11T16:47:35.524Z,19.60
2023-04-11T16:50:02.917Z,20.02
2023-04-11T16:52:30.246Z,18.50
2023-04-11T16:54:57.388Z,19.08
2023-04-11T16:57:25.265Z,17.88
2023-04-11T16:59:52.481Z,22.88
2023-04-11T17:02:19.593Z,16.35
2023-04-11T17:04:46.951Z,23.50
2023-04-11T17:07:14.380Z,23.15
2023-04-11T17:09:41.865Z,21.80
2023-04-11T17:12:08.981Z,27.20
2023-04-11T17:14:36.854Z,27.50
2023-04-11T17:17:04.309Z,20.90
2023-04-11T17:19:31.894Z,23.83
2023-04-11T17:21:59.039Z,18.58
2023-04-11T17:24:26.194Z,16.73
2023-04-11T17:26:53.802Z,14.43
2023-04-11T17:29:20.934Z,19.17
2023-04-11T17:31:48.577Z,20.90
2023-04-11T17:34:15.764Z,16.60
2023-04-11T17:36:43.334Z,15.70
2023-04-11T17:39:18.290Z,13.73
2023-04-11T17:41:46.291Z,17.85
2023-04-11T17:44:14.018Z,19.58
2023-04-11T17:46:42.071Z,19.67
2023-04-11T17:49:09.155Z,19.30
2023-04-11T17:51:43.071Z,28.73
2023-04-11T17:54:17.100Z,23.23
2023-04-11T17:56:44.389Z,36.60
2023-04-11T17:59:12.057Z,128.25
2023-04-11T18:01:39.504Z,161.48
2023-04-11T18:04:09.879Z,78.65
2023-04-11T18:06:37.082Z,49.45
2023-04-11T18:09:06.074Z,34.50
